Desde as 19:25, um intenso nevoeiro chegou à região do Aeroporto Afonso Pena, que no momento opera com o ILS CAT II.

SBCT 062225Z 11005KT 1200 R15/P2000 R33/1200 BCFG BR SCT001 BKN002 07/06 Q1020=
SBCT 062235Z 12005KT 0600 R15/0800 R33/0600 FG BKN001 07/06 Q1020=
SBCT 062300Z 10005KT 0500 R15/0500 R33/0500 FG OVC001 08/07 Q1020=

Nesta época é muito comum este fenômeno ocorrer a noite, porém geralmente mais tarde. Com o vento trazendo umidade da região da Serra do Mar, muito provavelmente este nevoeiro só se dissipe pela manhã.